sensor_id;sensor_type;location;lat;lon;timestamp;P1;durP1;ratioP1;P2;durP2;ratioP2
37449;SDS011;23309;52.582;13.406;2022-11-21T00:00:59;8.20;;;6.80;;
37449;SDS011;23309;52.582;13.406;2022-11-21T00:03:27;8.57;;;6.90;;
37449;SDS011;23309;52.582;13.406;2022-11-21T00:05:56;10.37;;;7.70;;
37449;SDS011;23309;52.582;13.406;2022-11-21T00:08:22;10.07;;;7.60;;
37449;SDS011;23309;52.582;13.406;2022-11-21T00:10:52;9.97;;;7.77;;
37449;SDS011;23309;52.582;13.406;2022-11-21T00:13:23;10.43;;;7.73;;
37449;SDS011;23309;52.582;13.406;2022-11-21T00:15:50;11.43;;;7.25;;
37449;SDS011;23309;52.582;13.406;2022-11-21T00:18:16;13.60;;;9.32;;
37449;SDS011;23309;52.582;13.406;2022-11-21T00:20:46;14.18;;;8.73;;
37449;SDS011;23309;52.582;13.406;2022-11-21T00:23:12;12.57;;;8.50;;
37449;SDS011;23309;52.582;13.406;2022-11-21T00:25:38;13.53;;;8.57;;
37449;SDS011;23309;52.582;13.406;2022-11-21T00:28:08;11.50;;;8.10;;
37449;SDS011;23309;52.582;13.406;2022-11-21T00:30:36;13.20;;;9.00;;
37449;SDS011;23309;52.582;13.406;2022-11-21T00:33:03;11.53;;;7.87;;
37449;SDS011;23309;52.582;13.406;2022-11-21T00:35:30;13.83;;;8.93;;
37449;SDS011;23309;52.582;13.406;2022-11-21T00:37:59;11.30;;;8.68;;
37449;SDS011;23309;52.582;13.406;2022-11-21T00:40:28;13.20;;;8.80;;
37449;SDS011;23309;52.582;13.406;2022-11-21T00:42:55;13.53;;;8.67;;
37449;SDS011;23309;52.582;13.406;2022-11-21T00:45:21;11.77;;;9.00;;
37449;SDS011;23309;52.582;13.406;2022-11-21T00:47:47;11.87;;;9.20;;
37449;SDS011;23309;52.582;13.406;2022-11-21T00:50:14;11.77;;;9.10;;
37449;SDS011;23309;52.582;13.406;2022-11-21T00:52:40;15.23;;;10.00;;
37449;SDS011;23309;52.582;13.406;2022-11-21T00:55:10;12.63;;;8.90;;
37449;SDS011;23309;52.582;13.406;2022-11-21T00:57:37;12.63;;;8.63;;
37449;SDS011;23309;52.582;13.406;2022-11-21T01:00:03;14.07;;;9.87;;
37449;SDS011;23309;52.582;13.406;2022-11-21T01:02:31;13.60;;;9.97;;
37449;SDS011;23309;52.582;13.406;2022-11-21T01:04:59;17.33;;;10.33;;
37449;SDS011;23309;52.582;13.406;2022-11-21T01:07:27;16.80;;;10.57;;
37449;SDS011;23309;52.582;13.406;2022-11-21T01:09:53;16.53;;;10.43;;
37449;SDS011;23309;52.582;13.406;2022-11-21T01:12:22;18.70;;;11.07;;
37449;SDS011;23309;52.582;13.406;2022-11-21T01:14:49;15.03;;;9.90;;
37449;SDS011;23309;52.582;13.406;2022-11-21T01:17:18;15.67;;;10.40;;
37449;SDS011;23309;52.582;13.406;2022-11-21T01:19:45;16.20;;;10.87;;
37449;SDS011;23309;52.582;13.406;2022-11-21T01:22:11;15.80;;;10.90;;
37449;SDS011;23309;52.582;13.406;2022-11-21T01:24:42;15.23;;;10.70;;
37449;SDS011;23309;52.582;13.406;2022-11-21T01:27:11;16.57;;;11.37;;
37449;SDS011;23309;52.582;13.406;2022-11-21T01:29:40;15.53;;;10.90;;
37449;SDS011;23309;52.582;13.406;2022-11-21T01:32:06;15.20;;;10.37;;
37449;SDS011;23309;52.582;13.406;2022-11-21T01:34:32;17.20;;;10.27;;
37449;SDS011;23309;52.582;13.406;2022-11-21T01:36:58;14.70;;;10.97;;
37449;SDS011;23309;52.582;13.406;2022-11-21T01:39:24;15.77;;;10.70;;
37449;SDS011;23309;52.582;13.406;2022-11-21T01:41:51;15.70;;;10.60;;
37449;SDS011;23309;52.582;13.406;2022-11-21T01:44:17;14.13;;;10.27;;
37449;SDS011;23309;52.582;13.406;2022-11-21T01:46:48;16.27;;;10.80;;
37449;SDS011;23309;52.582;13.406;2022-11-21T01:49:16;16.30;;;11.10;;
37449;SDS011;23309;52.582;13.406;2022-11-21T01:51:46;16.93;;;11.63;;
37449;SDS011;23309;52.582;13.406;2022-11-21T01:54:18;18.87;;;11.50;;
37449;SDS011;23309;52.582;13.406;2022-11-21T01:56:50;17.40;;;11.37;;
37449;SDS011;23309;52.582;13.406;2022-11-21T01:59:23;18.88;;;12.20;;
37449;SDS011;23309;52.582;13.406;2022-11-21T02:01:58;16.80;;;11.50;;
37449;SDS011;23309;52.582;13.406;2022-11-21T02:04:28;13.53;;;10.00;;
37449;SDS011;23309;52.582;13.406;2022-11-21T02:06:57;13.33;;;10.30;;
37449;SDS011;23309;52.582;13.406;2022-11-21T02:09:28;14.73;;;10.00;;
37449;SDS011;23309;52.582;13.406;2022-11-21T02:11:56;16.73;;;11.63;;
37449;SDS011;23309;52.582;13.406;2022-11-21T02:14:27;15.87;;;10.93;;
37449;SDS011;23309;52.582;13.406;2022-11-21T02:16:54;14.97;;;10.70;;
37449;SDS011;23309;52.582;13.406;2022-11-21T02:19:37;15.40;;;10.87;;
37449;SDS011;23309;52.582;13.406;2022-11-21T02:22:15;13.60;;;9.80;;
37449;SDS011;23309;52.582;13.406;2022-11-21T02:24:58;15.90;;;10.73;;
37449;SDS011;23309;52.582;13.406;2022-11-21T02:27:28;15.87;;;10.60;;
37449;SDS011;23309;52.582;13.406;2022-11-21T02:29:55;18.77;;;12.57;;
37449;SDS011;23309;52.582;13.406;2022-11-21T02:32:24;14.23;;;10.53;;
37449;SDS011;23309;52.582;13.406;2022-11-21T02:34:57;16.17;;;10.53;;
37449;SDS011;23309;52.582;13.406;2022-11-21T02:37:23;15.33;;;10.73;;
37449;SDS011;23309;52.582;13.406;2022-11-21T02:39:50;13.77;;;10.17;;
37449;SDS011;23309;52.582;13.406;2022-11-21T02:42:20;13.75;;;10.68;;
37449;SDS011;23309;52.582;13.406;2022-11-21T02:44:56;14.07;;;10.23;;
37449;SDS011;23309;52.582;13.406;2022-11-21T02:47:32;15.53;;;10.80;;
37449;SDS011;23309;52.582;13.406;2022-11-21T02:50:02;17.43;;;11.80;;
37449;SDS011;23309;52.582;13.406;2022-11-21T02:52:35;16.63;;;11.60;;
37449;SDS011;23309;52.582;13.406;2022-11-21T02:55:01;16.10;;;11.18;;
37449;SDS011;23309;52.582;13.406;2022-11-21T02:57:33;15.60;;;11.13;;
37449;SDS011;23309;52.582;13.406;2022-11-21T02:59:59;19.47;;;11.73;;
37449;SDS011;23309;52.582;13.406;2022-11-21T03:02:26;13.83;;;10.80;;
37449;SDS011;23309;52.582;13.406;2022-11-21T03:04:54;13.60;;;9.90;;
37449;SDS011;23309;52.582;13.406;2022-11-21T03:07:23;15.77;;;10.60;;
37449;SDS011;23309;52.582;13.406;2022-11-21T03:09:49;18.17;;;11.98;;
37449;SDS011;23309;52.582;13.406;2022-11-21T03:12:19;15.70;;;12.00;;
37449;SDS011;23309;52.582;13.406;2022-11-21T03:14:48;13.17;;;10.67;;
37449;SDS011;23309;52.582;13.406;2022-11-21T03:17:14;14.37;;;10.27;;
37449;SDS011;23309;52.582;13.406;2022-11-21T03:19:43;15.68;;;10.52;;
37449;SDS011;23309;52.582;13.406;2022-11-21T03:22:09;15.48;;;10.30;;
37449;SDS011;23309;52.582;13.406;2022-11-21T03:24:39;15.40;;;11.07;;
37449;SDS011;23309;52.582;13.406;2022-11-21T03:27:05;15.65;;;11.10;;
37449;SDS011;23309;52.582;13.406;2022-11-21T03:29:31;15.67;;;10.93;;
37449;SDS011;23309;52.582;13.406;2022-11-21T03:32:00;15.33;;;10.67;;
37449;SDS011;23309;52.582;13.406;2022-11-21T03:34:26;16.37;;;11.63;;
37449;SDS011;23309;52.582;13.406;2022-11-21T03:36:52;14.00;;;10.10;;
37449;SDS011;23309;52.582;13.406;2022-11-21T03:39:18;16.85;;;11.32;;
37449;SDS011;23309;52.582;13.406;2022-11-21T03:41:47;20.35;;;11.95;;
37449;SDS011;23309;52.582;13.406;2022-11-21T03:44:13;14.47;;;10.20;;
37449;SDS011;23309;52.582;13.406;2022-11-21T03:46:47;16.92;;;11.52;;
37449;SDS011;23309;52.582;13.406;2022-11-21T03:49:16;16.70;;;10.88;;
37449;SDS011;23309;52.582;13.406;2022-11-21T03:51:42;15.50;;;11.30;;
37449;SDS011;23309;52.582;13.406;2022-11-21T03:54:09;16.98;;;11.13;;
37449;SDS011;23309;52.582;13.406;2022-11-21T03:56:36;16.65;;;10.73;;
37449;SDS011;23309;52.582;13.406;2022-11-21T03:59:02;16.60;;;10.90;;
37449;SDS011;23309;52.582;13.406;2022-11-21T04:01:31;15.98;;;10.43;;
37449;SDS011;23309;52.582;13.406;2022-11-21T04:03:58;16.70;;;11.93;;
37449;SDS011;23309;52.582;13.406;2022-11-21T04:06:27;13.48;;;10.43;;
37449;SDS011;23309;52.582;13.406;2022-11-21T04:08:53;14.90;;;10.60;;
37449;SDS011;23309;52.582;13.406;2022-11-21T04:11:19;16.95;;;11.45;;
37449;SDS011;23309;52.582;13.406;2022-11-21T04:13:46;14.90;;;10.70;;
37449;SDS011;23309;52.582;13.406;2022-11-21T04:16:12;17.03;;;10.97;;
37449;SDS011;23309;52.582;13.406;2022-11-21T04:18:38;15.52;;;11.27;;
37449;SDS011;23309;52.582;13.406;2022-11-21T04:21:05;18.15;;;11.45;;
37449;SDS011;23309;52.582;13.406;2022-11-21T04:23:35;15.95;;;11.75;;
37449;SDS011;23309;52.582;13.406;2022-11-21T04:26:02;19.65;;;12.52;;
37449;SDS011;23309;52.582;13.406;2022-11-21T04:28:29;17.02;;;11.95;;
37449;SDS011;23309;52.582;13.406;2022-11-21T04:30:55;17.13;;;12.18;;
37449;SDS011;23309;52.582;13.406;2022-11-21T04:33:27;15.60;;;11.02;;
37449;SDS011;23309;52.582;13.406;2022-11-21T04:35:53;17.27;;;11.55;;
37449;SDS011;23309;52.582;13.406;2022-11-21T04:38:22;19.80;;;12.20;;
37449;SDS011;23309;52.582;13.406;2022-11-21T04:40:51;17.43;;;12.03;;
37449;SDS011;23309;52.582;13.406;2022-11-21T04:43:17;18.20;;;12.07;;
37449;SDS011;23309;52.582;13.406;2022-11-21T04:45:43;16.73;;;12.02;;
37449;SDS011;23309;52.582;13.406;2022-11-21T04:48:10;17.05;;;12.00;;
37449;SDS011;23309;52.582;13.406;2022-11-21T04:50:36;17.85;;;12.02;;
37449;SDS011;23309;52.582;13.406;2022-11-21T04:53:02;18.50;;;11.30;;
37449;SDS011;23309;52.582;13.406;2022-11-21T04:55:29;17.13;;;10.65;;
37449;SDS011;23309;52.582;13.406;2022-11-21T04:57:59;17.45;;;11.70;;
37449;SDS011;23309;52.582;13.406;2022-11-21T05:00:27;14.85;;;10.38;;
37449;SDS011;23309;52.582;13.406;2022-11-21T05:02:53;16.48;;;11.75;;
37449;SDS011;23309;52.582;13.406;2022-11-21T05:05:19;16.40;;;11.85;;
37449;SDS011;23309;52.582;13.406;2022-11-21T05:07:45;17.17;;;11.48;;
37449;SDS011;23309;52.582;13.406;2022-11-21T05:10:11;17.50;;;11.35;;
37449;SDS011;23309;52.582;13.406;2022-11-21T05:12:37;15.75;;;10.90;;
37449;SDS011;23309;52.582;13.406;2022-11-21T05:15:07;16.95;;;11.15;;
37449;SDS011;23309;52.582;13.406;2022-11-21T05:17:34;14.52;;;10.45;;
37449;SDS011;23309;52.582;13.406;2022-11-21T05:20:00;14.25;;;10.60;;
37449;SDS011;23309;52.582;13.406;2022-11-21T05:22:29;15.77;;;10.57;;
37449;SDS011;23309;52.582;13.406;2022-11-21T05:24:55;16.65;;;11.18;;
37449;SDS011;23309;52.582;13.406;2022-11-21T05:27:21;15.68;;;10.32;;
37449;SDS011;23309;52.582;13.406;2022-11-21T05:29:47;16.35;;;11.20;;
37449;SDS011;23309;52.582;13.406;2022-11-21T05:32:16;15.30;;;11.43;;
37449;SDS011;23309;52.582;13.406;2022-11-21T05:34:42;15.75;;;11.68;;
37449;SDS011;23309;52.582;13.406;2022-11-21T05:37:08;17.33;;;11.43;;
37449;SDS011;23309;52.582;13.406;2022-11-21T05:39:34;18.88;;;11.20;;
37449;SDS011;23309;52.582;13.406;2022-11-21T05:42:00;19.77;;;11.60;;
37449;SDS011;23309;52.582;13.406;2022-11-21T05:44:26;16.63;;;11.40;;
37449;SDS011;23309;52.582;13.406;2022-11-21T05:46:53;16.08;;;11.20;;
37449;SDS011;23309;52.582;13.406;2022-11-21T05:49:22;17.08;;;12.30;;
37449;SDS011;23309;52.582;13.406;2022-11-21T05:51:48;14.80;;;10.57;;
37449;SDS011;23309;52.582;13.406;2022-11-21T05:54:14;19.00;;;12.20;;
37449;SDS011;23309;52.582;13.406;2022-11-21T05:56:41;16.40;;;11.68;;
37449;SDS011;23309;52.582;13.406;2022-11-21T05:59:09;15.80;;;11.20;;
37449;SDS011;23309;52.582;13.406;2022-11-21T06:01:35;16.58;;;11.68;;
37449;SDS011;23309;52.582;13.406;2022-11-21T06:04:02;18.55;;;11.80;;
37449;SDS011;23309;52.582;13.406;2022-11-21T06:06:31;17.27;;;11.50;;
37449;SDS011;23309;52.582;13.406;2022-11-21T06:08:57;16.90;;;11.70;;
37449;SDS011;23309;52.582;13.406;2022-11-21T06:11:26;15.43;;;11.03;;
37449;SDS011;23309;52.582;13.406;2022-11-21T06:13:52;16.97;;;11.80;;
37449;SDS011;23309;52.582;13.406;2022-11-21T06:16:19;16.80;;;11.60;;
37449;SDS011;23309;52.582;13.406;2022-11-21T06:18:46;17.30;;;11.47;;
37449;SDS011;23309;52.582;13.406;2022-11-21T06:21:15;19.13;;;11.27;;
37449;SDS011;23309;52.582;13.406;2022-11-21T06:23:46;16.33;;;10.87;;
37449;SDS011;23309;52.582;13.406;2022-11-21T06:26:20;15.57;;;10.87;;
37449;SDS011;23309;52.582;13.406;2022-11-21T06:28:48;15.30;;;10.90;;
37449;SDS011;23309;52.582;13.406;2022-11-21T06:31:18;17.73;;;11.97;;
37449;SDS011;23309;52.582;13.406;2022-11-21T06:33:51;20.63;;;13.73;;
37449;SDS011;23309;52.582;13.406;2022-11-21T06:36:21;16.73;;;12.30;;
37449;SDS011;23309;52.582;13.406;2022-11-21T06:38:51;16.27;;;11.37;;
37449;SDS011;23309;52.582;13.406;2022-11-21T06:41:19;15.35;;;11.55;;
37449;SDS011;23309;52.582;13.406;2022-11-21T06:43:47;16.43;;;11.53;;
37449;SDS011;23309;52.582;13.406;2022-11-21T06:46:14;18.77;;;11.87;;
37449;SDS011;23309;52.582;13.406;2022-11-21T06:48:41;17.85;;;12.65;;
37449;SDS011;23309;52.582;13.406;2022-11-21T06:51:10;21.05;;;12.20;;
37449;SDS011;23309;52.582;13.406;2022-11-21T06:53:41;17.58;;;11.40;;
37449;SDS011;23309;52.582;13.406;2022-11-21T06:56:10;15.50;;;11.57;;
37449;SDS011;23309;52.582;13.406;2022-11-21T06:58:36;16.52;;;12.10;;
37449;SDS011;23309;52.582;13.406;2022-11-21T07:01:02;17.73;;;12.38;;
37449;SDS011;23309;52.582;13.406;2022-11-21T07:03:34;16.70;;;11.48;;
37449;SDS011;23309;52.582;13.406;2022-11-21T07:06:01;18.70;;;12.15;;
37449;SDS011;23309;52.582;13.406;2022-11-21T07:08:32;16.98;;;11.50;;
37449;SDS011;23309;52.582;13.406;2022-11-21T07:11:00;16.27;;;12.20;;
37449;SDS011;23309;52.582;13.406;2022-11-21T07:13:30;19.35;;;11.77;;
37449;SDS011;23309;52.582;13.406;2022-11-21T07:15:59;15.93;;;11.40;;
37449;SDS011;23309;52.582;13.406;2022-11-21T07:18:27;19.42;;;12.77;;
37449;SDS011;23309;52.582;13.406;2022-11-21T07:20:56;19.77;;;11.57;;
37449;SDS011;23309;52.582;13.406;2022-11-21T07:23:25;21.13;;;12.38;;
37449;SDS011;23309;52.582;13.406;2022-11-21T07:25:53;19.75;;;13.07;;
37449;SDS011;23309;52.582;13.406;2022-11-21T07:28:19;19.13;;;12.02;;
37449;SDS011;23309;52.582;13.406;2022-11-21T07:30:48;23.00;;;14.10;;
37449;SDS011;23309;52.582;13.406;2022-11-21T07:33:14;24.02;;;13.77;;
37449;SDS011;23309;52.582;13.406;2022-11-21T07:35:40;21.25;;;13.57;;
37449;SDS011;23309;52.582;13.406;2022-11-21T07:38:06;24.88;;;14.52;;
37449;SDS011;23309;52.582;13.406;2022-11-21T07:40:33;20.42;;;14.50;;
37449;SDS011;23309;52.582;13.406;2022-11-21T07:43:00;22.58;;;14.05;;
37449;SDS011;23309;52.582;13.406;2022-11-21T07:45:26;20.80;;;12.82;;
37449;SDS011;23309;52.582;13.406;2022-11-21T07:47:58;21.15;;;13.40;;
37449;SDS011;23309;52.582;13.406;2022-11-21T07:50:25;21.90;;;14.23;;
37449;SDS011;23309;52.582;13.406;2022-11-21T07:52:55;19.77;;;13.57;;
37449;SDS011;23309;52.582;13.406;2022-11-21T07:55:22;18.95;;;12.80;;
37449;SDS011;23309;52.582;13.406;2022-11-21T07:57:55;23.75;;;14.40;;
37449;SDS011;23309;52.582;13.406;2022-11-21T08:00:23;22.43;;;14.50;;
37449;SDS011;23309;52.582;13.406;2022-11-21T08:02:49;20.08;;;13.27;;
37449;SDS011;23309;52.582;13.406;2022-11-21T08:05:18;23.15;;;14.10;;
37449;SDS011;23309;52.582;13.406;2022-11-21T08:07:45;23.30;;;13.57;;
37449;SDS011;23309;52.582;13.406;2022-11-21T08:10:11;21.70;;;14.20;;
37449;SDS011;23309;52.582;13.406;2022-11-21T08:12:38;21.50;;;14.45;;
37449;SDS011;23309;52.582;13.406;2022-11-21T08:15:06;23.43;;;14.77;;
37449;SDS011;23309;52.582;13.406;2022-11-21T08:17:34;23.50;;;13.93;;
37449;SDS011;23309;52.582;13.406;2022-11-21T08:20:00;24.30;;;14.60;;
37449;SDS011;23309;52.582;13.406;2022-11-21T08:22:29;21.77;;;14.02;;
37449;SDS011;23309;52.582;13.406;2022-11-21T08:24:55;22.33;;;14.18;;
37449;SDS011;23309;52.582;13.406;2022-11-21T08:27:22;23.02;;;14.25;;
37449;SDS011;23309;52.582;13.406;2022-11-21T08:29:49;32.23;;;13.97;;
37449;SDS011;23309;52.582;13.406;2022-11-21T08:32:18;22.97;;;14.10;;
37449;SDS011;23309;52.582;13.406;2022-11-21T08:34:44;22.17;;;14.00;;
37449;SDS011;23309;52.582;13.406;2022-11-21T08:37:10;22.73;;;15.02;;
37449;SDS011;23309;52.582;13.406;2022-11-21T08:39:38;23.23;;;14.27;;
37449;SDS011;23309;52.582;13.406;2022-11-21T08:42:05;20.65;;;14.05;;
37449;SDS011;23309;52.582;13.406;2022-11-21T08:44:31;24.10;;;14.40;;
37449;SDS011;23309;52.582;13.406;2022-11-21T08:47:00;27.55;;;15.52;;
37449;SDS011;23309;52.582;13.406;2022-11-21T08:49:26;26.50;;;13.82;;
37449;SDS011;23309;52.582;13.406;2022-11-21T08:51:56;23.05;;;12.75;;
37449;SDS011;23309;52.582;13.406;2022-11-21T08:54:22;21.15;;;13.40;;
37449;SDS011;23309;52.582;13.406;2022-11-21T08:56:52;23.70;;;12.50;;
37449;SDS011;23309;52.582;13.406;2022-11-21T08:59:18;23.55;;;13.50;;
37449;SDS011;23309;52.582;13.406;2022-11-21T09:01:44;24.70;;;14.75;;
37449;SDS011;23309;52.582;13.406;2022-11-21T09:04:10;21.80;;;13.15;;
37449;SDS011;23309;52.582;13.406;2022-11-21T09:06:37;24.45;;;14.00;;
37449;SDS011;23309;52.582;13.406;2022-11-21T09:09:06;22.38;;;12.27;;
37449;SDS011;23309;52.582;13.406;2022-11-21T09:11:32;21.67;;;13.93;;
37449;SDS011;23309;52.582;13.406;2022-11-21T09:14:02;21.92;;;13.75;;
37449;SDS011;23309;52.582;13.406;2022-11-21T09:16:28;31.10;;;12.70;;
37449;SDS011;23309;52.582;13.406;2022-11-21T09:18:54;17.33;;;11.60;;
37449;SDS011;23309;52.582;13.406;2022-11-21T09:21:20;21.08;;;12.82;;
37449;SDS011;23309;52.582;13.406;2022-11-21T09:23:49;20.33;;;12.20;;
37449;SDS011;23309;52.582;13.406;2022-11-21T09:26:15;26.50;;;12.50;;
37449;SDS011;23309;52.582;13.406;2022-11-21T09:28:41;22.13;;;13.07;;
37449;SDS011;23309;52.582;13.406;2022-11-21T09:31:09;24.10;;;13.05;;
37449;SDS011;23309;52.582;13.406;2022-11-21T09:33:36;22.58;;;12.65;;
37449;SDS011;23309;52.582;13.406;2022-11-21T09:36:03;28.15;;;13.43;;
37449;SDS011;23309;52.582;13.406;2022-11-21T09:38:30;20.08;;;13.02;;
37449;SDS011;23309;52.582;13.406;2022-11-21T09:41:01;26.85;;;13.50;;
37449;SDS011;23309;52.582;13.406;2022-11-21T09:43:42;25.13;;;13.60;;
37449;SDS011;23309;52.582;13.406;2022-11-21T09:46:25;22.35;;;12.70;;
37449;SDS011;23309;52.582;13.406;2022-11-21T09:49:01;22.10;;;12.53;;
37449;SDS011;23309;52.582;13.406;2022-11-21T09:51:33;22.25;;;11.93;;
37449;SDS011;23309;52.582;13.406;2022-11-21T09:54:04;18.67;;;12.00;;
37449;SDS011;23309;52.582;13.406;2022-11-21T09:56:40;21.25;;;12.38;;
37449;SDS011;23309;52.582;13.406;2022-11-21T09:59:11;18.77;;;12.20;;
37449;SDS011;23309;52.582;13.406;2022-11-21T10:01:59;19.83;;;11.30;;
37449;SDS011;23309;52.582;13.406;2022-11-21T10:04:26;17.63;;;11.10;;
37449;SDS011;23309;52.582;13.406;2022-11-21T10:06:54;15.45;;;11.18;;
37449;SDS011;23309;52.582;13.406;2022-11-21T10:09:32;16.42;;;10.45;;
37449;SDS011;23309;52.582;13.406;2022-11-21T10:12:13;16.38;;;10.18;;
37449;SDS011;23309;52.582;13.406;2022-11-21T10:14:53;14.65;;;9.98;;
37449;SDS011;23309;52.582;13.406;2022-11-21T10:17:38;15.13;;;9.77;;
37449;SDS011;23309;52.582;13.406;2022-11-21T10:20:25;15.50;;;9.90;;
37449;SDS011;23309;52.582;13.406;2022-11-21T10:23:08;12.18;;;8.43;;
37449;SDS011;23309;52.582;13.406;2022-11-21T10:25:54;15.70;;;10.13;;
37449;SDS011;23309;52.582;13.406;2022-11-21T10:28:30;13.13;;;9.65;;
37449;SDS011;23309;52.582;13.406;2022-11-21T10:31:07;12.35;;;8.57;;
37449;SDS011;23309;52.582;13.406;2022-11-21T10:33:38;13.20;;;8.45;;
37449;SDS011;23309;52.582;13.406;2022-11-21T10:36:06;11.95;;;7.90;;
37449;SDS011;23309;52.582;13.406;2022-11-21T10:38:40;11.57;;;7.78;;
37449;SDS011;23309;52.582;13.406;2022-11-21T10:41:11;11.63;;;7.57;;
37449;SDS011;23309;52.582;13.406;2022-11-21T10:43:42;10.30;;;7.47;;
37449;SDS011;23309;52.582;13.406;2022-11-21T10:46:17;11.13;;;7.90;;
37449;SDS011;23309;52.582;13.406;2022-11-21T10:48:48;11.50;;;7.68;;
37449;SDS011;23309;52.582;13.406;2022-11-21T10:51:24;10.70;;;7.88;;
37449;SDS011;23309;52.582;13.406;2022-11-21T10:54:05;10.07;;;8.25;;
37449;SDS011;23309;52.582;13.406;2022-11-21T10:56:34;10.68;;;7.35;;
37449;SDS011;23309;52.582;13.406;2022-11-21T10:59:10;9.63;;;7.70;;
37449;SDS011;23309;52.582;13.406;2022-11-21T11:01:52;10.65;;;7.47;;
37449;SDS011;23309;52.582;13.406;2022-11-21T11:04:24;11.27;;;8.02;;
37449;SDS011;23309;52.582;13.406;2022-11-21T11:06:52;19.13;;;8.50;;
37449;SDS011;23309;52.582;13.406;2022-11-21T11:09:26;12.20;;;7.82;;
37449;SDS011;23309;52.582;13.406;2022-11-21T11:14:53;15.48;;;9.43;;
37449;SDS011;23309;52.582;13.406;2022-11-21T11:17:30;13.48;;;8.65;;
37449;SDS011;23309;52.582;13.406;2022-11-21T11:20:02;12.10;;;8.00;;
37449;SDS011;23309;52.582;13.406;2022-11-21T11:22:53;12.35;;;7.85;;
37449;SDS011;23309;52.582;13.406;2022-11-21T11:25:21;11.07;;;8.20;;
37449;SDS011;23309;52.582;13.406;2022-11-21T11:27:47;11.27;;;8.47;;
37449;SDS011;23309;52.582;13.406;2022-11-21T11:30:15;11.93;;;8.55;;
37449;SDS011;23309;52.582;13.406;2022-11-21T11:32:43;11.25;;;7.30;;
37449;SDS011;23309;52.582;13.406;2022-11-21T11:35:15;9.90;;;7.80;;
37449;SDS011;23309;52.582;13.406;2022-11-21T11:37:48;11.83;;;8.30;;
37449;SDS011;23309;52.582;13.406;2022-11-21T11:40:25;12.55;;;8.40;;
37449;SDS011;23309;52.582;13.406;2022-11-21T11:46:07;11.93;;;8.43;;
37449;SDS011;23309;52.582;13.406;2022-11-21T11:48:56;8.68;;;6.78;;
37449;SDS011;23309;52.582;13.406;2022-11-21T11:51:27;11.82;;;7.57;;
37449;SDS011;23309;52.582;13.406;2022-11-21T11:54:05;12.48;;;7.20;;
37449;SDS011;23309;52.582;13.406;2022-11-21T11:56:37;10.85;;;7.22;;
37449;SDS011;23309;52.582;13.406;2022-11-21T11:59:06;9.73;;;6.70;;
37449;SDS011;23309;52.582;13.406;2022-11-21T12:01:41;10.13;;;6.67;;
37449;SDS011;23309;52.582;13.406;2022-11-21T12:04:13;10.45;;;7.35;;
37449;SDS011;23309;52.582;13.406;2022-11-21T12:06:43;11.63;;;7.60;;
37449;SDS011;23309;52.582;13.406;2022-11-21T12:09:20;9.60;;;6.95;;
37449;SDS011;23309;52.582;13.406;2022-11-21T12:11:54;10.47;;;7.63;;
37449;SDS011;23309;52.582;13.406;2022-11-21T12:14:31;11.15;;;7.70;;
37449;SDS011;23309;52.582;13.406;2022-11-21T12:17:12;11.57;;;7.60;;
37449;SDS011;23309;52.582;13.406;2022-11-21T12:19:42;10.90;;;7.10;;
37449;SDS011;23309;52.582;13.406;2022-11-21T12:22:09;11.90;;;7.60;;
37449;SDS011;23309;52.582;13.406;2022-11-21T12:24:37;12.80;;;8.40;;
37449;SDS011;23309;52.582;13.406;2022-11-21T12:27:04;11.90;;;8.00;;
37449;SDS011;23309;52.582;13.406;2022-11-21T12:29:48;11.13;;;8.10;;
37449;SDS011;23309;52.582;13.406;2022-11-21T12:32:34;12.32;;;8.25;;
37449;SDS011;23309;52.582;13.406;2022-11-21T12:35:20;11.70;;;7.75;;
37449;SDS011;23309;52.582;13.406;2022-11-21T12:38:24;9.80;;;7.50;;
37449;SDS011;23309;52.582;13.406;2022-11-21T12:41:12;13.55;;;7.70;;
37449;SDS011;23309;52.582;13.406;2022-11-21T12:43:49;12.13;;;8.20;;
37449;SDS011;23309;52.582;13.406;2022-11-21T12:46:25;10.37;;;7.13;;
37449;SDS011;23309;52.582;13.406;2022-11-21T12:49:01;11.33;;;8.03;;
37449;SDS011;23309;52.582;13.406;2022-11-21T12:51:48;11.23;;;7.87;;
37449;SDS011;23309;52.582;13.406;2022-11-21T12:54:46;9.73;;;7.73;;
37449;SDS011;23309;52.582;13.406;2022-11-21T12:57:31;10.90;;;7.68;;
37449;SDS011;23309;52.582;13.406;2022-11-21T13:00:10;11.00;;;7.22;;
37449;SDS011;23309;52.582;13.406;2022-11-21T13:06:11;12.43;;;7.15;;
37449;SDS011;23309;52.582;13.406;2022-11-21T13:08:40;13.25;;;7.95;;
37449;SDS011;23309;52.582;13.406;2022-11-21T13:11:11;9.57;;;7.60;;
37449;SDS011;23309;52.582;13.406;2022-11-21T13:13:51;9.23;;;6.83;;
37449;SDS011;23309;52.582;13.406;2022-11-21T13:16:37;11.23;;;7.83;;
37449;SDS011;23309;52.582;13.406;2022-11-21T13:19:15;10.43;;;7.53;;
37449;SDS011;23309;52.582;13.406;2022-11-21T13:21:50;11.93;;;8.50;;
37449;SDS011;23309;52.582;13.406;2022-11-21T13:27:23;10.73;;;8.23;;
37449;SDS011;23309;52.582;13.406;2022-11-21T13:33:10;14.37;;;9.73;;
37449;SDS011;23309;52.582;13.406;2022-11-21T13:42:02;12.30;;;8.70;;
37449;SDS011;23309;52.582;13.406;2022-11-21T13:44:36;10.82;;;8.15;;
37449;SDS011;23309;52.582;13.406;2022-11-21T13:47:04;12.98;;;8.93;;
37449;SDS011;23309;52.582;13.406;2022-11-21T13:49:40;14.45;;;9.15;;
37449;SDS011;23309;52.582;13.406;2022-11-21T13:52:19;12.60;;;8.50;;
37449;SDS011;23309;52.582;13.406;2022-11-21T13:55:02;12.80;;;9.30;;
37449;SDS011;23309;52.582;13.406;2022-11-21T13:57:55;13.65;;;8.77;;
37449;SDS011;23309;52.582;13.406;2022-11-21T14:00:37;14.73;;;8.88;;
37449;SDS011;23309;52.582;13.406;2022-11-21T14:06:29;13.63;;;9.60;;
37449;SDS011;23309;52.582;13.406;2022-11-21T14:09:13;13.93;;;9.90;;
37449;SDS011;23309;52.582;13.406;2022-11-21T14:11:45;12.82;;;9.35;;
37449;SDS011;23309;52.582;13.406;2022-11-21T14:14:22;12.43;;;9.52;;
37449;SDS011;23309;52.582;13.406;2022-11-21T14:16:57;12.20;;;8.73;;
37449;SDS011;23309;52.582;13.406;2022-11-21T14:19:48;10.77;;;8.00;;
37449;SDS011;23309;52.582;13.406;2022-11-21T14:22:26;12.47;;;9.07;;
37449;SDS011;23309;52.582;13.406;2022-11-21T14:24:56;10.50;;;7.90;;
37449;SDS011;23309;52.582;13.406;2022-11-21T14:27:25;9.32;;;7.72;;
37449;SDS011;23309;52.582;13.406;2022-11-21T14:29:55;10.45;;;7.82;;
37449;SDS011;23309;52.582;13.406;2022-11-21T14:32:25;12.45;;;7.90;;
37449;SDS011;23309;52.582;13.406;2022-11-21T14:34:52;9.38;;;7.30;;
37449;SDS011;23309;52.582;13.406;2022-11-21T14:37:35;15.50;;;7.38;;
37449;SDS011;23309;52.582;13.406;2022-11-21T14:40:09;12.70;;;8.60;;
37449;SDS011;23309;52.582;13.406;2022-11-21T14:42:37;10.95;;;8.20;;
37449;SDS011;23309;52.582;13.406;2022-11-21T14:45:07;11.15;;;7.88;;
37449;SDS011;23309;52.582;13.406;2022-11-21T14:47:45;10.65;;;8.10;;
37449;SDS011;23309;52.582;13.406;2022-11-21T14:50:20;12.07;;;7.95;;
37449;SDS011;23309;52.582;13.406;2022-11-21T14:52:54;10.77;;;7.57;;
37449;SDS011;23309;52.582;13.406;2022-11-21T14:55:21;11.65;;;8.45;;
37449;SDS011;23309;52.582;13.406;2022-11-21T14:57:51;13.47;;;8.63;;